Lyman, Wyoming
Current Conditions -  °F | °C
As of 9:55 PM on Sunday 21 Dec 2014 (Local Time) from KFBR Reporting Station
Overcast Overcast  
Wind Chill: -6°   Ceiling: 3300
Heat Index:   Visibility: 10mi
Dew Point:   Wind: 29mph
Humidity: 89%   Direction: 290°WNW
Pressure: 29.9"   Gusts: 41mph
Location:  41.33°N, 110.29°W
Report Text: KFBR 220455Z AUTO 29025G36KT 10SM SCT028 BKN033 OVC039 02/00 A2990 RMK AO2 T00160000
Loading
Personal Weather Stations






























Interactive Weather Map New forecast layout! Learn more

10-Day Weather Forecast

Advertisements
Track Severe Weather on mobile